Time;durP1;ratioP1;P1;durP2;ratioP2;P2;SDS_P1;SDS_P2;PMS_P1;PMS_P2;Temp;Humidity;BMP_temperature;BMP_pressure;BME280_temperature;BME280_humidity;BME280_pressure;Samples;Min_cycle;Max_cycle;Signal;HPM_P1;HPM_P2
2021/09/14 00:08:11;;;;;;;11.40;3.03;;;21.10;64.90;;;;;;20979988;27;80840;-72
2021/09/14 00:18:14;;;;;;;9.00;2.38;;;21.10;65.50;;;;;;20975749;27;79837;-70
2021/09/14 00:28:17;;;;;;;9.27;2.40;;;21.20;65.30;;;;;;20974053;27;80727;-70
2021/09/14 00:38:20;;;;;;;10.48;2.30;;;21.40;65.00;;;;;;20973245;27;80370;-69
2021/09/14 00:48:22;;;;;;;11.95;2.65;;;21.50;65.00;;;;;;20971557;27;80632;-69
2021/09/14 00:58:26;;;;;;;11.77;3.53;;;21.50;64.50;;;;;;20972719;27;80874;-69
2021/09/14 01:08:34;;;;;;;11.93;3.20;;;21.60;64.50;;;;;;20971901;27;80628;-70
2021/09/14 01:18:36;;;;;;;15.40;3.13;;;21.60;64.60;;;;;;20971259;27;81053;-70
2021/09/14 01:28:39;;;;;;;8.13;2.80;;;21.60;64.90;;;;;;20970603;27;80124;-69
2021/09/14 01:38:42;;;;;;;7.80;2.40;;;21.50;65.00;;;;;;20970002;27;79809;-69
2021/09/14 01:48:46;;;;;;;9.40;2.15;;;21.50;65.80;;;;;;20970142;27;81952;-69
2021/09/14 01:58:51;;;;;;;10.02;2.80;;;21.50;65.80;;;;;;20951513;27;80777;-70
2021/09/14 03:01:00;;;;;;;14.85;2.90;;;21.20;67.50;;;;;;20964740;27;80673;-71
2021/09/14 03:11:12;;;;;;;14.15;3.35;;;21.00;67.90;;;;;;20978497;27;80864;-71
2021/09/14 03:21:16;;;;;;;16.75;2.90;;;21.00;68.40;;;;;;20978760;27;79973;-69
2021/09/14 03:31:21;;;;;;;12.73;3.47;;;21.20;67.50;;;;;;20977991;27;80696;-69
2021/09/14 03:41:25;;;;;;;8.45;2.55;;;21.30;68.70;;;;;;20977311;27;80597;-69
2021/09/14 03:51:27;;;;;;;;;;;21.40;67.80;;;;;;20978095;27;80806;-70
2021/09/14 04:01:34;;;;;;;13.55;2.78;;;21.40;68.50;;;;;;20998077;27;80685;-71
2021/09/14 04:11:36;;;;;;;15.02;3.33;;;21.40;68.10;;;;;;20958541;27;79983;-70
2021/09/14 04:21:39;;;;;;;12.88;2.25;;;21.20;67.90;;;;;;20984391;27;80756;-70
2021/09/14 04:31:43;;;;;;;9.45;2.05;;;21.20;68.40;;;;;;21036939;27;80691;-69
2021/09/14 04:41:47;;;;;;;13.20;2.55;;;21.20;68.40;;;;;;20974129;27;80854;-69
2021/09/14 04:51:55;;;;;;;11.32;2.42;;;21.00;68.60;;;;;;20972625;27;80766;-70
2021/09/14 05:01:59;;;;;;;7.82;2.15;;;21.00;68.80;;;;;;20972385;27;80866;-70
2021/09/14 05:12:02;;;;;;;17.27;2.95;;;21.00;68.70;;;;;;20972734;27;80715;-71
2021/09/14 05:22:06;;;;;;;13.23;3.10;;;21.00;68.80;;;;;;20970948;27;81609;-69
2021/09/14 05:32:10;;;;;;;10.48;2.78;;;21.10;68.80;;;;;;20969794;27;79995;-70
2021/09/14 05:42:14;;;;;;;12.23;2.70;;;21.10;69.00;;;;;;21026231;27;81357;-67
2021/09/14 05:52:17;;;;;;;8.30;2.45;;;21.00;69.20;;;;;;21036827;27;80754;-70
2021/09/14 06:02:20;;;;;;;15.45;3.05;;;21.00;68.90;;;;;;21009480;27;81490;-71
2021/09/14 06:12:25;;;;;;;12.82;2.97;;;21.00;68.60;;;;;;21040595;27;81297;-62
2021/09/14 06:22:27;;;;;;;14.40;3.38;;;21.00;68.20;;;;;;21038868;27;81167;-62
2021/09/14 06:32:30;;;;;;;19.40;2.60;;;21.10;67.80;;;;;;21037847;27;81881;-65
2021/09/14 06:42:33;;;;;;;15.25;2.80;;;21.30;66.40;;;;;;21048357;27;80840;-65
2021/09/14 06:52:37;;;;;;;9.77;2.38;;;21.30;65.70;;;;;;21051227;27;80868;-63
2021/09/14 07:02:41;;;;;;;17.52;3.72;;;21.30;64.90;;;;;;21049176;27;81627;-63
2021/09/14 07:12:43;;;;;;;;;;;21.20;64.30;;;;;;21044950;27;81824;-65
2021/09/14 07:22:46;;;;;;;14.18;3.75;;;21.30;63.20;;;;;;21073404;27;80698;-69
2021/09/14 07:32:54;;;;;;;14.25;2.20;;;21.40;62.40;;;;;;21051205;27;82173;-68
2021/09/14 07:42:59;;;;;;;8.10;2.05;;;21.40;61.00;;;;;;21051014;27;81245;-68
2021/09/14 07:53:04;;;;;;;13.07;2.58;;;21.40;59.30;;;;;;21051335;27;81135;-67
2021/09/14 08:03:06;;;;;;;6.18;1.70;;;21.30;59.10;;;;;;21049299;27;80774;-68
2021/09/14 08:13:10;;;;;;;15.70;2.50;;;21.50;58.50;;;;;;21047084;27;81663;-67
2021/09/14 08:23:16;;;;;;;6.47;1.70;;;21.40;57.20;;;;;;21048777;27;81465;-68
2021/09/14 08:33:21;;;;;;;10.38;1.83;;;21.40;57.00;;;;;;21047254;27;81195;-71
2021/09/14 08:43:24;;;;;;;10.68;2.35;;;21.50;56.10;;;;;;21027756;27;81285;-68
2021/09/14 08:53:34;;;;;;;9.90;2.00;;;21.70;55.50;;;;;;21042980;27;81309;-64
2021/09/14 09:03:38;;;;;;;8.27;1.80;;;22.00;55.10;;;;;;21047224;27;80759;-69
2021/09/14 09:13:45;;;;;;;5.57;1.88;;;22.10;56.00;;;;;;21046076;27;81764;-69
2021/09/14 09:23:56;;;;;;;10.98;2.20;;;22.20;56.50;;;;;;21036642;27;81647;-68
2021/09/14 09:34:07;;;;;;;8.88;1.83;;;22.20;57.30;;;;;;21040540;27;81321;-68
2021/09/14 09:44:13;;;;;;;10.68;1.92;;;22.20;57.60;;;;;;21042954;27;80588;-70
2021/09/14 09:54:18;;;;;;;15.18;3.28;;;22.30;58.30;;;;;;21042904;27;81503;-70
2021/09/14 10:04:25;;;;;;;15.38;3.15;;;22.40;59.50;;;;;;21039794;27;81749;-71
2021/09/14 10:14:32;;;;;;;14.98;2.58;;;22.20;60.90;;;;;;21025392;27;82033;-70
2021/09/14 10:24:35;;;;;;;16.00;2.58;;;21.90;63.70;;;;;;21048715;27;82453;-69
2021/09/14 10:34:55;;;;;;;10.82;3.25;;;21.70;64.50;;;;;;21046212;27;81741;-71
2021/09/14 10:45:13;;;;;;;10.53;2.03;;;21.30;67.50;;;;;;21035413;27;81640;-72
2021/09/14 10:55:17;;;;;;;13.80;2.40;;;20.70;70.80;;;;;;21030009;27;82386;-71
2021/09/14 11:05:29;;;;;;;9.32;2.15;;;20.40;72.70;;;;;;21048590;27;81360;-71
2021/09/14 11:15:33;;;;;;;9.60;2.67;;;20.40;73.50;;;;;;21050571;27;81898;-73
2021/09/14 11:25:36;;;;;;;13.25;2.95;;;20.80;74.00;;;;;;21051845;27;81703;-71
2021/09/14 11:35:41;;;;;;;8.95;2.47;;;21.00;73.50;;;;;;21049123;27;81879;-73
2021/09/14 11:45:44;;;;;;;13.50;2.90;;;21.10;73.50;;;;;;21049310;27;81588;-75
2021/09/14 11:55:50;;;;;;;18.67;3.03;;;20.90;74.50;;;;;;21048971;27;81433;-76
2021/09/14 12:05:55;;;;;;;10.55;2.85;;;20.90;74.60;;;;;;21051515;27;83209;-74
2021/09/14 12:16:05;;;;;;;10.50;2.75;;;20.50;75.30;;;;;;21053100;27;81871;-75
2021/09/14 12:26:25;;;;;;;14.63;3.40;;;20.60;75.90;;;;;;21048326;27;81773;-73
2021/09/14 12:36:29;;;;;;;11.38;2.80;;;20.90;75.60;;;;;;21041945;27;81797;-75
2021/09/14 12:46:32;;;;;;;13.90;3.38;;;21.40;74.40;;;;;;21044728;27;81025;-76
2021/09/14 12:56:36;;;;;;;13.55;3.22;;;21.80;72.70;;;;;;21046172;27;81829;-71
2021/09/14 13:06:39;;;;;;;15.90;4.28;;;21.90;72.30;;;;;;21040625;27;81410;-70
2021/09/14 13:16:43;;;;;;;11.95;3.40;;;21.60;73.10;;;;;;21055556;27;81555;-69
2021/09/14 13:26:46;;;;;;;13.10;2.88;;;21.60;73.90;;;;;;20987243;27;81910;-69
2021/09/14 13:36:48;;;;;;;13.25;4.28;;;21.70;72.90;;;;;;21049877;27;80627;-68
2021/09/14 13:47:06;;;;;;;10.70;2.60;;;22.20;72.40;;;;;;20988312;27;81124;-65
2021/09/14 13:57:08;;;;;;;8.93;2.40;;;22.60;70.70;;;;;;21046493;27;81791;-65
2021/09/14 14:07:10;;;;;;;7.13;2.35;;;23.20;68.90;;;;;;21052433;27;81816;-66
2021/09/14 14:17:13;;;;;;;12.88;2.90;;;22.80;70.00;;;;;;21048218;27;80696;-64
2021/09/14 14:27:17;;;;;;;5.03;1.52;;;22.40;70.90;;;;;;21053073;27;81565;-67
2021/09/14 14:37:19;;;;;;;10.73;2.08;;;22.20;70.70;;;;;;21051865;27;80778;-67
2021/09/14 14:47:23;;;;;;;10.50;2.30;;;22.20;71.40;;;;;;21051872;27;80928;-65
2021/09/14 14:57:26;;;;;;;5.95;1.42;;;22.10;71.50;;;;;;21050778;27;80884;-66
2021/09/14 15:07:29;;;;;;;10.80;2.58;;;22.20;70.90;;;;;;21063856;27;79996;-67
2021/09/14 15:17:33;;;;;;;11.10;2.05;;;22.00;71.60;;;;;;21064622;27;81675;-66
2021/09/14 15:27:36;;;;;;;7.95;2.33;;;22.70;70.50;;;;;;21017644;27;80937;-66
2021/09/14 15:37:38;;;;;;;8.93;1.98;;;24.20;65.40;;;;;;20977993;27;79892;-65
2021/09/14 15:47:41;;;;;;;7.63;1.70;;;23.40;66.40;;;;;;20976838;27;80762;-66
2021/09/14 15:57:44;;;;;;;10.15;1.65;;;22.80;68.00;;;;;;20976404;27;81532;-67
2021/09/14 16:07:46;;;;;;;5.72;1.98;;;22.40;69.00;;;;;;20976696;27;81067;-66
2021/09/14 16:17:49;;;;;;;7.00;2.17;;;21.90;69.60;;;;;;20976184;27;80702;-67
2021/09/14 16:27:52;;;;;;;8.73;2.05;;;21.50;71.10;;;;;;20975602;27;80948;-66
2021/09/14 16:37:55;;;;;;;7.03;2.00;;;21.10;71.80;;;;;;20974480;27;80074;-67
2021/09/14 16:47:58;;;;;;;11.10;2.22;;;20.50;74.20;;;;;;20973844;27;80636;-66
2021/09/14 16:58:00;;;;;;;10.27;2.60;;;20.20;76.70;;;;;;20973670;27;80782;-68
2021/09/14 17:08:03;;;;;;;8.10;2.53;;;19.90;78.30;;;;;;20971455;27;80552;-67
2021/09/14 17:18:05;;;;;;;9.10;2.58;;;19.90;78.60;;;;;;20971144;27;80702;-65
2021/09/14 17:28:07;;;;;;;10.70;2.83;;;20.30;78.00;;;;;;20952399;27;81722;-68
2021/09/14 17:38:10;;;;;;;6.25;1.70;;;20.20;78.00;;;;;;20971519;27;80819;-75
2021/09/14 17:48:18;;;;;;;10.15;2.05;;;20.30;77.10;;;;;;20981026;27;80869;-66
2021/09/14 17:58:22;;;;;;;11.57;2.50;;;20.10;77.30;;;;;;20989616;27;80715;-65
2021/09/14 18:08:25;;;;;;;8.18;3.30;;;19.70;80.00;;;;;;20970022;27;81052;-64
2021/09/14 18:18:27;;;;;;;12.23;2.80;;;19.20;82.20;;;;;;20969931;27;80030;-64
2021/09/14 18:28:29;;;;;;;9.90;3.00;;;18.90;83.10;;;;;;20970129;27;82135;-68
2021/09/14 18:38:31;;;;;;;8.77;3.03;;;18.90;83.40;;;;;;20978634;27;81865;-65
2021/09/14 18:48:33;;;;;;;9.80;2.53;;;18.90;83.50;;;;;;20991730;27;80693;-72
2021/09/14 18:58:35;;;;;;;11.97;1.40;;;18.80;83.70;;;;;;21004150;27;80844;-71
2021/09/14 19:08:37;;;;;;;7.40;0.60;;;17.70;84.30;;;;;;21058288;27;82170;-73
2021/09/14 19:18:39;;;;;;;7.50;1.00;;;16.50;88.10;;;;;;21050701;27;82089;-70
2021/09/14 19:28:40;;;;;;;4.77;1.70;;;16.80;90.20;;;;;;21063812;27;82427;-72
2021/09/14 19:38:42;;;;;;;3.42;1.17;;;17.10;90.80;;;;;;21064201;27;81668;-70
2021/09/14 19:48:45;;;;;;;8.00;1.80;;;17.20;90.80;;;;;;21027197;27;81709;-75
2021/09/14 19:58:46;;;;;;;3.22;1.40;;;17.10;91.10;;;;;;21053193;27;80956;-72
2021/09/14 20:08:49;;;;;;;6.85;2.10;;;17.10;91.80;;;;;;21015623;27;81002;-73
2021/09/14 20:18:52;;;;;;;5.70;1.10;;;17.10;92.00;;;;;;21054264;27;81662;-79
2021/09/14 20:28:53;;;;;;;4.77;1.33;;;17.00;92.00;;;;;;20980287;27;80559;-74
2021/09/14 20:38:56;;;;;;;6.27;2.17;;;17.00;92.20;;;;;;20974554;27;80778;-76
2021/09/14 20:48:58;;;;;;;4.93;1.40;;;16.90;92.40;;;;;;20956010;27;80749;-73
2021/09/14 20:59:00;;;;;;;5.73;1.87;;;16.80;92.40;;;;;;20972737;27;82365;-75
2021/09/14 21:09:02;;;;;;;14.73;5.93;;;16.80;92.60;;;;;;20964734;27;82201;-78
2021/09/14 21:19:04;;;;;;;8.73;3.30;;;16.80;92.70;;;;;;20972642;27;80688;-75
2021/09/14 21:29:06;;;;;;;5.77;2.47;;;16.80;92.70;;;;;;20971011;27;81791;-71
2021/09/14 21:39:09;;;;;;;6.25;3.13;;;17.00;93.00;;;;;;20971124;27;81894;-72
2021/09/14 21:49:11;;;;;;;5.38;3.08;;;17.00;93.10;;;;;;20973949;27;80083;-73
2021/09/14 21:59:14;;;;;;;7.10;3.40;;;17.00;93.10;;;;;;21029854;27;81072;-72
2021/09/14 22:09:16;;;;;;;8.48;2.70;;;17.20;93.20;;;;;;21056434;27;81787;-73
2021/09/14 22:19:19;;;;;;;7.10;3.22;;;17.00;93.20;;;;;;21068777;27;81056;-73
2021/09/14 22:29:22;;;;;;;6.88;2.30;;;16.90;93.20;;;;;;21050303;27;82039;-71
2021/09/14 22:39:25;;;;;;;8.40;3.20;;;16.80;93.20;;;;;;21048793;27;81636;-73
2021/09/14 22:49:27;;;;;;;6.87;2.73;;;16.80;93.20;;;;;;21066624;27;81188;-75
2021/09/14 22:59:31;;;;;;;7.18;2.65;;;16.80;93.20;;;;;;21047694;27;80857;-74
2021/09/14 23:09:34;;;;;;;7.68;3.65;;;16.70;93.30;;;;;;21064453;27;82143;-72
2021/09/14 23:19:36;;;;;;;9.17;3.17;;;16.80;93.40;;;;;;21063552;27;81877;-73
2021/09/14 23:29:38;;;;;;;5.80;3.60;;;17.00;93.60;;;;;;21063575;27;82272;-75
2021/09/14 23:39:40;;;;;;;7.03;3.25;;;17.00;93.50;;;;;;21062906;27;80588;-76
2021/09/14 23:49:43;;;;;;;5.68;3.42;;;17.10;93.70;;;;;;21062218;27;80655;-75
2021/09/14 23:59:44;;;;;;;12.43;4.95;;;17.20;93.50;;;;;;21062242;27;81918;-74
